Time;durP1;ratioP1;P1;durP2;ratioP2;P2;SDS_P1;SDS_P2;PMS_P1;PMS_P2;Temp;Humidity;BMP_temperature;BMP_pressure;BME280_temperature;BME280_humidity;BME280_pressure;Samples;Min_cycle;Max_cycle;Signal;HPM_P1;HPM_P2
2021/07/23 00:06:13;;;;;;;20.67;12.88;;;;;;;;;;21085672;28;20048;-68
2021/07/23 00:16:16;;;;;;;19.10;10.75;;;;;;;;;;21084623;28;20048;-69
2021/07/23 00:26:21;;;;;;;14.73;10.52;;;;;;;;;;21083702;28;20063;-69
2021/07/23 00:36:24;;;;;;;18.73;11.43;;;;;;;;;;21083214;28;20140;-69
2021/07/23 00:46:31;;;;;;;15.48;10.35;;;;;;;;;;21082483;28;20082;-66
2021/07/23 00:56:33;;;;;;;11.90;10.23;;;29.60;27.30;;;;;;21082215;28;20075;-66
2021/07/23 01:06:37;;;;;;;19.08;10.88;;;28.40;28.80;;;;;;21097719;28;20047;-68
2021/07/23 01:16:41;;;;;;;17.85;10.50;;;28.00;29.40;;;;;;21080266;28;20407;-69
2021/07/23 01:26:44;;;;;;;14.38;10.13;;;27.60;29.60;;;;;;21079968;28;20427;-70
2021/07/23 01:36:51;;;;;;;13.50;10.07;;;27.50;30.10;;;;;;21077444;28;20407;-70
2021/07/23 01:46:54;;;;;;;17.40;10.38;;;27.30;30.70;;;;;;21076855;28;20066;-70
2021/07/23 01:56:57;;;;;;;17.42;10.65;;;27.30;30.80;;;;;;21078329;28;20056;-69
2021/07/23 02:07:00;;;;;;;14.23;9.00;;;26.90;31.50;;;;;;21077425;28;20052;-68
2021/07/23 02:17:04;;;;;;;14.63;9.27;;;26.50;32.20;;;;;;21078024;28;20040;-70
2021/07/23 02:27:06;;;;;;;16.63;9.48;;;26.10;32.50;;;;;;21076607;28;20052;-69
2021/07/23 02:37:08;;;;;;;15.80;9.55;;;26.70;31.40;;;;;;21077141;28;20048;-69
2021/07/23 02:47:11;;;;;;;13.00;8.40;;;26.60;31.30;;;;;;21084798;28;20044;-69
2021/07/23 02:57:13;;;;;;;12.52;9.02;;;25.90;32.40;;;;;;21091437;28;20048;-68
2021/07/23 03:07:21;;;;;;;14.30;12.32;;;25.80;32.40;;;;;;21090570;28;20048;-68
2021/07/23 03:17:26;;;;;;;13.73;11.13;;;25.80;32.20;;;;;;21089555;28;20048;-65
2021/07/23 03:27:32;;;;;;;15.75;11.85;;;25.70;32.40;;;;;;21088473;28;20047;-63
2021/07/23 03:37:39;;;;;;;16.42;11.80;;;25.70;32.50;;;;;;21088230;28;20053;-65
2021/07/23 03:47:44;;;;;;;18.23;11.38;;;25.80;32.40;;;;;;21087728;28;20491;-64
2021/07/23 03:57:50;;;;;;;16.60;11.57;;;25.90;31.80;;;;;;21086131;28;20391;-66
2021/07/23 04:07:56;;;;;;;19.73;11.77;;;25.90;32.30;;;;;;21085637;28;20137;-66
2021/07/23 04:18:03;;;;;;;14.07;9.38;;;25.80;33.00;;;;;;21084488;28;20052;-69
2021/07/23 04:28:10;;;;;;;16.77;10.45;;;25.80;33.70;;;;;;21083512;28;20059;-64
2021/07/23 04:38:17;;;;;;;18.02;10.40;;;25.50;34.10;;;;;;21083394;28;20082;-70
2021/07/23 04:48:28;;;;;;;17.90;10.63;;;25.30;34.10;;;;;;21082382;28;20139;-67
2021/07/23 04:58:32;;;;;;;13.70;10.02;;;25.20;34.40;;;;;;21081220;28;20134;-69
2021/07/23 05:08:35;;;;;;;15.13;9.63;;;25.20;34.20;;;;;;21082357;28;20051;-66
2021/07/23 05:18:39;;;;;;;16.02;10.48;;;25.10;34.70;;;;;;21082539;28;20044;-65
2021/07/23 05:28:42;;;;;;;14.05;10.10;;;24.90;34.70;;;;;;21079415;28;20067;-68
2021/07/23 05:38:45;;;;;;;15.60;10.57;;;24.90;34.60;;;;;;21079046;28;20047;-65
2021/07/23 05:48:49;;;;;;;18.77;10.60;;;24.70;34.80;;;;;;21078321;28;20490;-63
2021/07/23 05:58:52;;;;;;;22.65;10.43;;;24.90;34.50;;;;;;21077525;28;20048;-64
2021/07/23 06:08:56;;;;;;;17.42;9.95;;;24.80;34.80;;;;;;21078219;28;20055;-68
2021/07/23 06:19:01;;;;;;;19.95;11.88;;;25.00;35.20;;;;;;21082743;28;20500;-68
2021/07/23 06:29:04;;;;;;;22.05;12.55;;;25.20;32.60;;;;;;21093043;28;20051;-65
2021/07/23 06:39:07;;;;;;;21.48;10.90;;;25.60;30.10;;;;;;21092669;28;20043;-68
2021/07/23 06:49:09;;;;;;;15.43;10.13;;;25.90;30.00;;;;;;21091658;28;20044;-70
2021/07/23 06:59:11;;;;;;;17.08;9.82;;;26.10;29.60;;;;;;21089216;28;20067;-70
2021/07/23 07:09:13;;;;;;;18.95;11.63;;;26.50;29.10;;;;;;21091198;28;20059;-69
2021/07/23 07:19:16;;;;;;;18.88;11.25;;;26.80;28.60;;;;;;21091538;28;20071;-66
2021/07/23 07:29:17;;;;;;;31.23;12.50;;;27.10;28.50;;;;;;21088476;28;20138;-69
2021/07/23 07:39:23;;;;;;;20.23;12.02;;;27.60;27.80;;;;;;21087258;28;20072;-64
2021/07/23 07:49:27;;;;;;;15.32;11.73;;;29.70;24.90;;;;;;21093037;28;20129;-66
2021/07/23 07:59:29;;;;;;;19.38;12.65;;;29.10;25.30;;;;;;21085362;28;20052;-64
2021/07/23 08:09:53;;;;;;;21.25;12.23;;;29.10;25.20;;;;;;21084041;28;20052;-69
2021/07/23 08:19:58;;;;;;;22.98;13.82;;;29.50;24.50;;;;;;21083812;28;20077;-63
2021/07/23 08:29:59;;;;;;;21.42;11.38;;;29.70;24.40;;;;;;21083645;28;20496;-66
2021/07/23 08:40:01;;;;;;;13.60;9.23;;;30.10;26.80;;;;;;21084029;28;20443;-64
2021/07/23 08:50:04;;;;;;;9.65;7.95;;;30.60;23.90;;;;;;21081716;28;20044;-66
2021/07/23 09:00:19;;;;;;;10.35;7.18;;;31.10;23.00;;;;;;21081239;28;20048;-71
2021/07/23 09:10:23;;;;;;;9.68;5.95;;;31.30;22.30;;;;;;21081284;28;20052;-69
2021/07/23 09:20:29;;;;;;;7.70;5.30;;;31.50;21.50;;;;;;21079512;28;20096;-63
2021/07/23 09:30:58;;;;;;;10.43;6.88;;;31.90;21.00;;;;;;21079741;28;20527;-69
2021/07/23 09:41:00;;;;;;;70.07;26.47;;;32.30;19.80;;;;;;21077214;28;20054;-70
2021/07/23 09:51:05;;;;;;;14.68;8.52;;;32.50;20.10;;;;;;21135219;28;20145;-67
2021/07/23 10:01:29;;;;;;;30.17;13.63;;;33.10;18.70;;;;;;21150828;28;20048;-65
2021/07/23 10:11:32;;;;;;;19.13;11.55;;;33.30;18.30;;;;;;21161288;28;20058;-69
2021/07/23 10:21:34;;;;;;;20.80;12.20;;;33.30;18.80;;;;;;21160760;28;20100;-70
2021/07/23 10:31:39;;;;;;;18.27;10.20;;;33.30;20.60;;;;;;21141406;28;20070;-65
2021/07/23 10:42:03;;;;;;;25.10;14.10;;;33.40;21.70;;;;;;21160699;28;20416;-64
2021/07/23 10:52:05;;;;;;;15.20;11.82;;;33.30;20.60;;;;;;21159472;28;20052;-67
2021/07/23 11:02:27;;;;;;;21.52;12.77;;;33.30;19.80;;;;;;21160041;28;20043;-65
2021/07/23 11:12:33;;;;;;;18.00;12.98;;;33.40;19.50;;;;;;21156774;28;20048;-69
2021/07/23 11:22:38;;;;;;;16.45;11.07;;;33.40;20.10;;;;;;21173951;28;20064;-69
2021/07/23 11:32:59;;;;;;;16.90;11.88;;;33.40;19.90;;;;;;21173688;28;20059;-67
2021/07/23 11:43:01;;;;;;;14.35;11.00;;;33.50;19.80;;;;;;21188992;28;20051;-70
2021/07/23 11:53:09;;;;;;;17.83;12.85;;;33.50;19.80;;;;;;21180006;28;20151;-67
2021/07/23 12:03:23;;;;;;;12.93;10.60;;;33.60;20.60;;;;;;21170704;28;20046;-70
2021/07/23 12:13:28;;;;;;;13.32;11.43;;;33.70;19.70;;;;;;21169496;28;20063;-71
2021/07/23 12:23:30;;;;;;;15.13;10.48;;;33.80;20.10;;;;;;21168586;28;20054;-70
2021/07/23 12:33:32;;;;;;;12.88;9.95;;;33.90;19.50;;;;;;21167656;28;20139;-69
2021/07/23 12:43:35;;;;;;;11.85;9.23;;;34.00;19.10;;;;;;21149030;28;20075;-65
2021/07/23 12:53:38;;;;;;;10.80;8.38;;;34.10;18.80;;;;;;21165841;28;20134;-66
2021/07/23 13:03:42;;;;;;;8.68;6.88;;;34.20;18.60;;;;;;21165256;28;20055;-65
2021/07/23 13:13:44;;;;;;;9.35;7.55;;;34.20;18.00;;;;;;21147391;28;20412;-64
2021/07/23 13:23:46;;;;;;;7.50;5.90;;;34.30;18.40;;;;;;21164286;28;20043;-65
2021/07/23 13:33:51;;;;;;;6.78;5.60;;;34.20;17.30;;;;;;21163422;28;20043;-71
2021/07/23 13:43:57;;;;;;;7.10;5.57;;;34.30;17.70;;;;;;21164350;28;20051;-67
2021/07/23 13:54:01;;;;;;;6.63;5.32;;;34.40;17.90;;;;;;21162953;28;20522;-71
2021/07/23 14:04:03;;;;;;;6.80;5.68;;;34.30;17.20;;;;;;21163218;28;20418;-73
2021/07/23 14:14:05;;;;;;;7.05;5.22;;;34.50;17.10;;;;;;21163788;28;20051;-69
2021/07/23 14:24:08;;;;;;;8.23;5.68;;;34.40;17.80;;;;;;21161649;28;20404;-74
2021/07/23 14:34:10;;;;;;;7.45;6.28;;;34.50;17.10;;;;;;21161730;28;20051;-74
2021/07/23 14:44:12;;;;;;;8.13;6.20;;;34.40;17.30;;;;;;21176314;28;20100;-72
2021/07/23 14:54:13;;;;;;;6.82;6.00;;;34.40;17.60;;;;;;21208077;28;20476;-75
2021/07/23 15:04:15;;;;;;;8.60;6.13;;;34.40;17.50;;;;;;21179159;28;20043;-73
2021/07/23 15:14:17;;;;;;;10.65;5.78;;;34.60;17.90;;;;;;21179100;28;20458;-73
2021/07/23 15:24:20;;;;;;;7.07;5.25;;;34.70;18.40;;;;;;21207550;28;20105;-73
2021/07/23 15:34:22;;;;;;;6.05;4.90;;;34.60;19.00;;;;;;21176916;28;20418;-74
2021/07/23 15:44:24;;;;;;;6.85;5.28;;;34.40;19.50;;;;;;21175905;28;20055;-70
2021/07/23 15:54:26;;;;;;;6.25;4.85;;;34.60;19.60;;;;;;21173850;28;20051;-75
2021/07/23 16:04:28;;;;;;;6.20;4.68;;;34.50;20.00;;;;;;21154777;28;20130;-69
2021/07/23 16:14:30;;;;;;;5.82;4.47;;;34.40;20.60;;;;;;21170867;28;20055;-73
2021/07/23 16:24:31;;;;;;;6.88;4.15;;;34.30;20.30;;;;;;21171675;28;20223;-73
2021/07/23 16:34:35;;;;;;;6.07;4.05;;;34.10;20.90;;;;;;21168894;28;20098;-74
2021/07/23 16:44:37;;;;;;;4.05;3.65;;;34.20;20.80;;;;;;21167419;28;20067;-72
2021/07/23 16:54:38;;;;;;;3.88;3.25;;;34.10;21.00;;;;;;21165976;28;20164;-73
2021/07/23 17:04:40;;;;;;;4.90;3.40;;;34.00;20.70;;;;;;21166935;28;20047;-73
2021/07/23 17:14:42;;;;;;;4.97;3.08;;;33.90;21.00;;;;;;21167028;28;20052;-73
2021/07/23 17:24:43;;;;;;;4.18;3.40;;;33.80;20.80;;;;;;21165302;28;20055;-73
2021/07/23 17:34:47;;;;;;;4.30;3.13;;;33.70;20.80;;;;;;21164897;28;20047;-72
2021/07/23 17:44:54;;;;;;;5.18;3.50;;;33.50;20.80;;;;;;21164927;28;20084;-72
2021/07/23 17:54:56;;;;;;;8.07;4.82;;;33.30;20.70;;;;;;21163561;28;20048;-72
2021/07/23 18:05:04;;;;;;;4.72;4.15;;;33.10;20.40;;;;;;21171719;28;20072;-71
2021/07/23 18:15:06;;;;;;;7.03;4.60;;;33.10;19.90;;;;;;21168550;28;20048;-69
2021/07/23 18:25:09;;;;;;;4.93;4.43;;;33.00;19.50;;;;;;21179147;28;20104;-64
2021/07/23 18:35:12;;;;;;;5.47;4.35;;;32.70;18.30;;;;;;21178816;28;20120;-69
2021/07/23 18:45:16;;;;;;;5.95;4.20;;;32.60;18.00;;;;;;21178199;28;20043;-69
2021/07/23 18:55:18;;;;;;;6.32;5.47;;;32.20;17.60;;;;;;21176257;28;20415;-73
2021/07/23 19:05:20;;;;;;;5.85;4.30;;;32.10;19.00;;;;;;21175100;28;20044;-66
2021/07/23 19:15:22;;;;;;;5.07;4.07;;;31.80;19.50;;;;;;21174461;28;20427;-65
2021/07/23 19:25:24;;;;;;;9.35;6.03;;;31.60;18.40;;;;;;21174690;28;20063;-68
2021/07/23 19:35:26;;;;;;;10.13;7.47;;;31.50;18.60;;;;;;21174172;28;20138;-69
2021/07/23 19:45:27;;;;;;;9.82;7.03;;;31.20;17.80;;;;;;21155399;28;20096;-67
2021/07/23 19:55:30;;;;;;;8.23;5.70;;;31.10;17.80;;;;;;21172365;28;20055;-69
2021/07/23 20:05:33;;;;;;;5.68;4.80;;;30.90;18.80;;;;;;21171601;28;20052;-65
2021/07/23 20:15:35;;;;;;;7.82;4.30;;;31.10;17.80;;;;;;21170449;28;20047;-69
2021/07/23 20:25:37;;;;;;;6.05;5.07;;;30.50;19.10;;;;;;21169847;28;20083;-68
2021/07/23 20:35:39;;;;;;;5.97;4.57;;;30.30;19.90;;;;;;21168148;28;20051;-66
2021/07/23 20:45:41;;;;;;;7.72;4.55;;;30.10;20.00;;;;;;21168349;28;20054;-71
2021/07/23 20:55:43;;;;;;;10.32;7.55;;;29.80;20.90;;;;;;21171999;28;20055;-69
2021/07/23 21:05:45;;;;;;;8.32;5.40;;;29.70;21.70;;;;;;21186019;28;20424;-68
2021/07/23 21:15:46;;;;;;;5.78;4.25;;;29.60;22.10;;;;;;21166648;28;20048;-70
2021/07/23 21:25:49;;;;;;;5.45;3.92;;;29.40;22.50;;;;;;21166192;28;20044;-67
2021/07/23 21:35:56;;;;;;;10.52;8.88;;;29.20;23.20;;;;;;21163968;28;20053;-68
2021/07/23 21:45:57;;;;;;;6.97;5.53;;;29.00;23.30;;;;;;21164116;28;20078;-66
2021/07/23 21:56:00;;;;;;;5.13;3.42;;;28.70;23.10;;;;;;21162871;28;20047;-66
2021/07/23 22:06:03;;;;;;;3.92;2.80;;;28.60;23.90;;;;;;21163187;28;20478;-67
2021/07/23 22:16:15;;;;;;;3.90;3.00;;;28.30;25.30;;;;;;21162047;28;20545;-66
2021/07/23 22:26:17;;;;;;;6.25;2.88;;;28.10;26.40;;;;;;21162899;28;20058;-67
2021/07/23 22:36:19;;;;;;;4.55;2.55;;;27.90;27.10;;;;;;21161146;28;20062;-66
2021/07/23 22:46:22;;;;;;;4.05;2.30;;;27.60;28.20;;;;;;21161395;28;20144;-66
2021/07/23 22:56:24;;;;;;;4.80;2.72;;;27.50;28.60;;;;;;21160176;28;20058;-65
2021/07/23 23:06:25;;;;;;;3.72;2.35;;;27.20;29.10;;;;;;21173484;28;20055;-65
2021/07/23 23:16:28;;;;;;;6.38;2.50;;;26.90;29.70;;;;;;21175190;28;20058;-66
2021/07/23 23:26:29;;;;;;;3.67;2.20;;;26.70;30.10;;;;;;21174812;28;20408;-67
2021/07/23 23:36:32;;;;;;;5.10;2.70;;;26.50;30.60;;;;;;21175394;28;20476;-67
2021/07/23 23:46:39;;;;;;;5.10;2.60;;;26.30;31.10;;;;;;21174551;28;20086;-64
2021/07/23 23:56:40;;;;;;;5.93;2.45;;;26.20;31.50;;;;;;21172767;28;20079;-71
